Lexington, NE

10:16 PM CDT on October 22, 2017 (GMT -0500)
Kelly

Weather History for KLXN - February, 2014

Change the Weather History Date:

Thursday, February 27, 2014

  Actual Average Record
Temperature  
Mean Temperature 16 °F -  
Max Temperature 26 °F 39 °F 75 °F (2006)
Min Temperature 6 °F 18 °F -4 °F (2015)
Degree Days  
Heating Degree Days 49    
Moisture  
Dew Point 11 °F    
Average Humidity 75    
Maximum Humidity 87    
Minimum Humidity 61    
Precipitation  
Precipitation 0.00 in - - ()
Sea Level Pressure  
Sea Level Pressure 29.88 in    
Wind  
Wind Speed 9 mph (SE)    
Max Wind Speed 17 mph    
Max Gust Speed 22 mph    
Visibility 10 miles    
Events      
Averages and records for this station are not official NWS values.
T = Trace of Precipitation, MM = Missing Value Source: NWS Daily Summary

Daily Weather History Graph

Daily Weather History Graph

Search for Another Location

Airport or City:

Trip Planner

Search our weather history database for the weather conditions in past years. The results will help you decide how hot, cold, wet, or windy it might be!

Date:

Astronomy

Feb. 27, 2014 Rise Set
Actual Time 7:16 AM CST 6:28 PM CST
Civil Twilight 6:48 AM CST 6:55 PM CST
Nautical Twilight 6:16 AM CST 7:27 PM CST
Astronomical Twilight 5:45 AM CST 7:59 PM CST
Moon 5:50 AM CST (2/27) 4:55 PM CST (2/27)
Length of Visible Light 12h 07m
Length of Day
11h 12m
Waning Crescent, 4% of the Moon is Illuminated
Feb 27
Waning Crescent
Mar 1
New
Mar 8
First Quarter
Mar 16
Full
Mar 23
Last Quarter

Hourly Weather History & Observations

Time (CST) Temp. Windchill Dew Point Humidity Pressure Visibility Wind Dir Wind Speed Gust Speed Precip Events Conditions
12:15 AM 17.1 °F 7.6 °F 12.0 °F 81% 29.99 in 10.0 mi NW 6.9 mph - N/A   Clear
12:35 AM 14.0 °F 6.5 °F 9.3 °F 82% 29.99 in 10.0 mi WNW 4.6 mph - N/A   Clear
12:55 AM 15.3 °F 4.4 °F 11.3 °F 84% 29.99 in 10.0 mi WNW 8.1 mph - N/A   Clear
1:15 AM 15.8 °F 5.1 °F 11.3 °F 82% 29.99 in 10.0 mi WNW 8.1 mph - N/A   Clear
1:35 AM 14.5 °F 4.6 °F 10.0 °F 82% 29.99 in 10.0 mi WNW 6.9 mph - N/A   Clear
1:55 AM 13.5 °F 3.3 °F 9.5 °F 84% 29.99 in 10.0 mi WNW 6.9 mph - N/A   Clear
2:15 AM 13.1 °F 4.0 °F 9.1 °F 84% 29.99 in 10.0 mi WNW 5.8 mph - N/A   Clear
2:35 AM 12.4 °F 0.9 °F 8.4 °F 84% 29.99 in 10.0 mi WNW 8.1 mph - N/A   Clear
2:55 AM 12.2 °F 0.7 °F 8.2 °F 84% 29.99 in 10.0 mi WNW 8.1 mph - N/A   Clear
3:15 AM 10.0 °F 1.8 °F 6.3 °F 85% 29.98 in 10.0 mi WNW 4.6 mph - N/A   Clear
3:35 AM 9.5 °F -0.3 °F 5.9 °F 85% 29.98 in 10.0 mi WNW 5.8 mph - N/A   Clear
3:55 AM 9.3 °F -1.7 °F 5.9 °F 86% 29.99 in 10.0 mi WNW 6.9 mph - N/A   Clear
4:15 AM 8.4 °F 1.8 °F 4.8 °F 85% 29.99 in 10.0 mi WNW 3.5 mph - N/A   Clear
4:35 AM 8.6 °F 2.0 °F 5.4 °F 87% 29.99 in 10.0 mi WNW 3.5 mph - N/A   Clear
4:55 AM 8.2 °F - 4.8 °F 86% 29.99 in 10.0 mi Calm Calm - N/A   Clear
5:15 AM 6.8 °F -0.1 °F 3.7 °F 87% 29.99 in 10.0 mi West 3.5 mph - N/A   Clear
5:35 AM 7.3 °F - 4.1 °F 87% 29.99 in 10.0 mi Calm Calm - N/A   Clear
5:55 AM 6.4 °F -2.4 °F 3.2 °F 87% 29.99 in 10.0 mi NE 4.6 mph - N/A   Clear
6:15 AM 6.3 °F -2.6 °F 3.0 °F 87% 29.99 in 10.0 mi East 4.6 mph - N/A   Clear
6:35 AM 9.5 °F 1.2 °F 6.4 °F 87% 30.00 in 10.0 mi East 4.6 mph - N/A   Clear
6:55 AM 11.3 °F 0.7 °F 7.7 °F 85% 30.00 in 10.0 mi East 6.9 mph - N/A   Clear
7:15 AM 10.9 °F -1.8 °F 7.5 °F 86% 29.99 in 10.0 mi East 9.2 mph - N/A   Clear
7:35 AM 11.1 °F 0.4 °F 6.6 °F 82% 29.99 in 10.0 mi East 6.9 mph - N/A   Clear
7:55 AM 11.3 °F 1.9 °F 7.2 °F 83% 30.00 in 10.0 mi East 5.8 mph - N/A   Clear
8:15 AM 12.0 °F -1.3 °F 7.0 °F 80% 30.00 in 10.0 mi East 10.4 mph - N/A   Clear
8:35 AM 12.9 °F -1.6 °F 7.7 °F 80% 30.00 in 10.0 mi ESE 12.7 mph - N/A   Clear
8:55 AM 13.6 °F -1.3 °F 8.8 °F 81% 30.00 in 10.0 mi ESE 13.8 mph - N/A   Clear
9:15 AM 14.5 °F -1.3 °F 9.1 °F 79% 29.99 in 10.0 mi East 16.1 mph - N/A   Clear
9:35 AM 15.3 °F 2.0 °F 8.8 °F 76% 29.99 in 10.0 mi SE 11.5 mph - N/A   Clear
9:55 AM 15.8 °F 3.4 °F 8.4 °F 73% 29.99 in 10.0 mi ESE 10.4 mph - N/A   Clear
10:15 AM 16.5 °F 3.0 °F 8.4 °F 70% 29.98 in 10.0 mi SE 12.7 mph - N/A   Clear
10:35 AM 17.4 °F 6.2 °F 9.7 °F 72% 29.97 in 10.0 mi SE 9.2 mph - N/A   Scattered Clouds
10:55 AM 18.3 °F 7.3 °F 9.5 °F 68% 29.97 in 10.0 mi ESE 9.2 mph - N/A   Scattered Clouds
11:15 AM 19.2 °F 7.0 °F 8.4 °F 63% 29.95 in 10.0 mi ESE 11.5 mph - N/A   Scattered Clouds
11:35 AM 20.3 °F 6.6 °F 9.3 °F 63% 29.93 in 10.0 mi SE 15.0 mph - N/A   Clear
11:55 AM 21.0 °F 8.1 °F 10.0 °F 63% 29.93 in 10.0 mi SE 13.8 mph - N/A   Scattered Clouds
12:15 PM 22.3 °F 9.2 °F 10.6 °F 61% 29.92 in 10.0 mi ESE 15.0 mph - N/A   Scattered Clouds
12:40 PM 22.8 °F 10.9 °F 12.0 °F 63% 29.90 in 10.0 mi SE 12.7 mph - N/A   Scattered Clouds
12:55 PM 22.5 °F 9.4 °F 11.3 °F 62% 29.89 in 10.0 mi ESE 15.0 mph 19.6 mph N/A   Clear
1:15 PM 23.4 °F 11.6 °F 12.4 °F 63% 29.88 in 10.0 mi SE 12.7 mph 19.6 mph N/A   Clear
1:35 PM 24.3 °F 11.7 °F 13.5 °F 63% 29.87 in 10.0 mi SE 15.0 mph - N/A   Clear
1:50 PM 24.3 °F 11.7 °F 13.8 °F 64% 29.85 in 10.0 mi SE 15.0 mph 20.7 mph N/A   Clear
2:15 PM 25.2 °F 12.0 °F 14.2 °F 63% 29.85 in 10.0 mi SSE 17.3 mph - N/A   Clear
2:35 PM 24.6 °F 13.8 °F 13.8 °F 64% 29.85 in 10.0 mi SSE 11.5 mph - N/A   Clear
2:55 PM 25.2 °F 15.1 °F 14.2 °F 63% 29.85 in 10.0 mi SSE 10.4 mph - N/A   Clear
3:15 PM 25.7 °F 14.6 °F 14.5 °F 63% 29.84 in 10.0 mi SE 12.7 mph 17.3 mph N/A   Clear
3:35 PM 26.1 °F 13.6 °F 15.4 °F 64% 29.82 in 10.0 mi SE 16.1 mph 21.9 mph N/A   Clear
3:55 PM 25.7 °F 13.1 °F 15.8 °F 66% 29.81 in 10.0 mi SE 16.1 mph - N/A   Clear
4:15 PM 25.9 °F 14.8 °F 16.3 °F 67% 29.80 in 10.0 mi SE 12.7 mph 20.7 mph N/A   Clear
4:35 PM 25.9 °F 13.3 °F 16.2 °F 67% 29.78 in 10.0 mi SE 16.1 mph 21.9 mph N/A   Clear
4:55 PM 26.4 °F 15.5 °F 16.3 °F 66% 29.77 in 10.0 mi SE 12.7 mph 21.9 mph N/A   Clear
5:15 PM 26.1 °F 13.6 °F 16.2 °F 66% 29.76 in 10.0 mi SE 16.1 mph 21.9 mph N/A   Clear
5:35 PM 25.7 °F 14.0 °F 16.7 °F 69% 29.75 in 10.0 mi SE 13.8 mph - N/A   Clear
5:55 PM 25.2 °F 12.4 °F 16.7 °F 70% 29.74 in 10.0 mi SE 16.1 mph 21.9 mph N/A   Clear
6:15 PM 24.8 °F 12.4 °F 16.9 °F 72% 29.74 in 10.0 mi SE 15.0 mph 19.6 mph N/A   Clear
6:35 PM 24.6 °F 12.7 °F 17.2 °F 74% 29.73 in 10.0 mi ESE 13.8 mph - N/A   Clear
6:55 PM 24.4 °F 11.5 °F 17.1 °F 73% 29.74 in 10.0 mi ESE 16.1 mph - N/A   Clear
7:15 PM 24.1 °F 12.5 °F 17.1 °F 75% 29.73 in 10.0 mi ESE 12.7 mph - N/A   Clear
7:30 PM 23.9 °F 11.7 °F 17.1 °F 75% 29.73 in 10.0 mi ESE 13.8 mph 18.4 mph N/A   Clear
7:55 PM 23.9 °F 12.9 °F 16.5 °F 73% 29.73 in 10.0 mi ESE 11.5 mph - N/A   Clear
8:15 PM 23.9 °F 12.9 °F 16.3 °F 73% 29.73 in 10.0 mi ESE 11.5 mph 17.3 mph N/A   Clear
8:35 PM 24.1 °F 11.0 °F 16.2 °F 72% 29.71 in 10.0 mi SE 16.1 mph - N/A   Clear
8:55 PM 23.9 °F 12.3 °F 16.3 °F 73% 29.71 in 10.0 mi ESE 12.7 mph 19.6 mph N/A   Clear
9:15 PM 23.7 °F 13.3 °F 16.0 °F 72% 29.71 in 10.0 mi SE 10.4 mph 16.1 mph N/A   Clear
9:35 PM 23.4 °F 11.6 °F 15.8 °F 73% 29.70 in 10.0 mi SE 12.7 mph 17.3 mph N/A   Clear
9:55 PM 23.2 °F 10.8 °F 15.6 °F 73% 29.71 in 10.0 mi SE 13.8 mph 17.3 mph N/A   Clear
10:15 PM 23.0 °F 12.4 °F 15.4 °F 73% 29.70 in 10.0 mi SE 10.4 mph - N/A   Clear
10:35 PM 22.5 °F 11.7 °F 14.9 °F 73% 29.70 in 10.0 mi SE 10.4 mph - N/A   Clear
10:55 PM 22.1 °F 11.3 °F 15.1 °F 74% 29.69 in 10.0 mi SE 10.4 mph - N/A   Clear
11:15 PM 21.7 °F 11.5 °F 14.9 °F 75% 29.69 in 10.0 mi SE 9.2 mph - N/A   Clear
11:35 PM 21.2 °F 10.9 °F 14.9 °F 77% 29.69 in 10.0 mi SE 9.2 mph - N/A   Clear
11:55 PM 21.2 °F 11.7 °F 14.5 °F 75% 29.68 in 10.0 mi ESE 8.1 mph - N/A   Clear